sensor_id;sensor_type;location;lat;lon;timestamp;pressure;altitude;pressure_sealevel;temperature;humidity
49943;BME280;36011;53.362;58.948;2023-05-20T00:02:53;97442.22;;;6.82;65.68
49943;BME280;36011;53.362;58.948;2023-05-20T00:05:57;97449.19;;;6.82;65.82
49943;BME280;36011;53.362;58.948;2023-05-20T00:08:57;97459.53;;;6.85;65.70
49943;BME280;36011;53.362;58.948;2023-05-20T00:12:02;97449.81;;;6.88;65.35
49943;BME280;36011;53.362;58.948;2023-05-20T00:15:04;97450.53;;;6.92;65.13
49943;BME280;36011;53.362;58.948;2023-05-20T00:18:06;97455.78;;;6.92;64.92
49943;BME280;36011;53.362;58.948;2023-05-20T00:21:07;97457.47;;;6.93;64.84
49943;BME280;36011;53.362;58.948;2023-05-20T00:24:08;97456.44;;;6.97;64.66
49943;BME280;36011;53.362;58.948;2023-05-20T00:27:11;97459.81;;;6.99;64.49
49943;BME280;36011;53.362;58.948;2023-05-20T00:30:16;97460.63;;;7.01;64.30
49943;BME280;36011;53.362;58.948;2023-05-20T00:33:20;97456.06;;;7.06;64.17
49943;BME280;36011;53.362;58.948;2023-05-20T00:36:21;97462.94;;;7.09;64.51
49943;BME280;36011;53.362;58.948;2023-05-20T00:39:22;97466.25;;;7.12;64.06
49943;BME280;36011;53.362;58.948;2023-05-20T00:42:24;97466.66;;;7.24;63.77
49943;BME280;36011;53.362;58.948;2023-05-20T00:45:25;97461.50;;;7.42;62.88
49943;BME280;36011;53.362;58.948;2023-05-20T00:48:35;97465.63;;;7.48;62.68
49943;BME280;36011;53.362;58.948;2023-05-20T00:51:38;97471.25;;;7.59;62.49
49943;BME280;36011;53.362;58.948;2023-05-20T00:54:40;97474.31;;;7.69;61.96
49943;BME280;36011;53.362;58.948;2023-05-20T00:57:46;97466.28;;;7.74;61.98
49943;BME280;36011;53.362;58.948;2023-05-20T01:00:50;97472.22;;;7.77;61.94
49943;BME280;36011;53.362;58.948;2023-05-20T01:03:53;97477.03;;;7.86;61.44
49943;BME280;36011;53.362;58.948;2023-05-20T01:06:57;97471.47;;;7.94;61.16
49943;BME280;36011;53.362;58.948;2023-05-20T01:10:01;97472.53;;;8.09;60.62
49943;BME280;36011;53.362;58.948;2023-05-20T01:13:07;97466.03;;;8.18;60.38
49943;BME280;36011;53.362;58.948;2023-05-20T01:16:13;97472.72;;;8.25;60.07
49943;BME280;36011;53.362;58.948;2023-05-20T01:19:30;97477.47;;;8.36;59.66
49943;BME280;36011;53.362;58.948;2023-05-20T01:22:38;97473.44;;;8.47;59.16
49943;BME280;36011;53.362;58.948;2023-05-20T01:25:41;97485.41;;;8.53;58.88
49943;BME280;36011;53.362;58.948;2023-05-20T01:28:47;97487.91;;;8.56;58.92
49943;BME280;36011;53.362;58.948;2023-05-20T01:31:49;97488.69;;;8.58;59.01
49943;BME280;36011;53.362;58.948;2023-05-20T01:34:54;97491.84;;;8.65;58.97
49943;BME280;36011;53.362;58.948;2023-05-20T01:37:58;97495.41;;;8.64;58.96
49943;BME280;36011;53.362;58.948;2023-05-20T01:41:02;97492.16;;;8.59;58.91
49943;BME280;36011;53.362;58.948;2023-05-20T01:44:09;97494.91;;;8.56;59.32
49943;BME280;36011;53.362;58.948;2023-05-20T01:47:12;97494.28;;;8.50;59.29
49943;BME280;36011;53.362;58.948;2023-05-20T01:50:13;97502.06;;;8.52;59.26
49943;BME280;36011;53.362;58.948;2023-05-20T01:53:16;97497.69;;;8.52;59.46
49943;BME280;36011;53.362;58.948;2023-05-20T01:56:17;97496.59;;;8.57;59.17
49943;BME280;36011;53.362;58.948;2023-05-20T01:59:23;97505.91;;;8.64;59.24
49943;BME280;36011;53.362;58.948;2023-05-20T02:02:28;97499.28;;;8.74;59.00
49943;BME280;36011;53.362;58.948;2023-05-20T02:05:32;97510.38;;;8.81;58.60
49943;BME280;36011;53.362;58.948;2023-05-20T02:08:36;97509.28;;;8.85;58.52
49943;BME280;36011;53.362;58.948;2023-05-20T02:11:37;97506.16;;;8.95;57.98
49943;BME280;36011;53.362;58.948;2023-05-20T02:14:38;97502.28;;;9.03;57.86
49943;BME280;36011;53.362;58.948;2023-05-20T02:17:42;97502.28;;;9.03;57.95
49943;BME280;36011;53.362;58.948;2023-05-20T02:21:03;97509.88;;;9.09;57.96
49943;BME280;36011;53.362;58.948;2023-05-20T02:24:07;97512.97;;;9.17;57.67
49943;BME280;36011;53.362;58.948;2023-05-20T02:27:08;97512.44;;;9.28;57.62
49943;BME280;36011;53.362;58.948;2023-05-20T02:30:11;97508.50;;;9.36;57.17
49943;BME280;36011;53.362;58.948;2023-05-20T02:33:18;97516.22;;;9.39;57.26
49943;BME280;36011;53.362;58.948;2023-05-20T02:36:22;97515.78;;;9.49;57.14
49943;BME280;36011;53.362;58.948;2023-05-20T02:39:23;97510.06;;;9.58;56.99
49943;BME280;36011;53.362;58.948;2023-05-20T02:42:24;97506.34;;;9.62;56.84
49943;BME280;36011;53.362;58.948;2023-05-20T02:45:26;97514.69;;;9.70;56.84
49943;BME280;36011;53.362;58.948;2023-05-20T02:48:27;97506.31;;;9.79;56.69
49943;BME280;36011;53.362;58.948;2023-05-20T02:51:28;97495.19;;;9.92;56.26
49943;BME280;36011;53.362;58.948;2023-05-20T02:54:31;97505.16;;;10.02;56.25
49943;BME280;36011;53.362;58.948;2023-05-20T02:57:35;97507.03;;;10.16;55.85
49943;BME280;36011;53.362;58.948;2023-05-20T03:00:42;97501.16;;;10.28;55.51
49943;BME280;36011;53.362;58.948;2023-05-20T03:03:43;97503.22;;;10.39;55.25
49943;BME280;36011;53.362;58.948;2023-05-20T03:06:46;97503.38;;;10.52;54.94
49943;BME280;36011;53.362;58.948;2023-05-20T03:09:52;97502.41;;;10.70;54.58
49943;BME280;36011;53.362;58.948;2023-05-20T03:12:55;97496.25;;;10.86;54.25
49943;BME280;36011;53.362;58.948;2023-05-20T03:15:59;97498.78;;;11.03;53.73
49943;BME280;36011;53.362;58.948;2023-05-20T03:19:03;97495.47;;;11.15;53.47
49943;BME280;36011;53.362;58.948;2023-05-20T03:22:04;97502.13;;;11.37;52.73
49943;BME280;36011;53.362;58.948;2023-05-20T03:25:08;97502.94;;;11.53;52.50
49943;BME280;36011;53.362;58.948;2023-05-20T03:28:14;97508.00;;;11.72;52.42
49943;BME280;36011;53.362;58.948;2023-05-20T03:31:20;97507.00;;;11.89;52.05
49943;BME280;36011;53.362;58.948;2023-05-20T03:34:21;97501.00;;;12.01;51.83
49943;BME280;36011;53.362;58.948;2023-05-20T03:37:24;97511.75;;;12.12;51.93
49943;BME280;36011;53.362;58.948;2023-05-20T03:40:28;97505.50;;;12.28;51.53
49943;BME280;36011;53.362;58.948;2023-05-20T03:43:34;97510.91;;;12.41;51.23
49943;BME280;36011;53.362;58.948;2023-05-20T03:46:38;97500.59;;;12.50;51.14
49943;BME280;36011;53.362;58.948;2023-05-20T03:49:39;97502.50;;;12.63;50.52
49943;BME280;36011;53.362;58.948;2023-05-20T03:52:45;97499.34;;;12.70;50.12
49943;BME280;36011;53.362;58.948;2023-05-20T03:55:49;97503.00;;;12.82;49.70
49943;BME280;36011;53.362;58.948;2023-05-20T03:58:54;97498.91;;;12.91;49.18
49943;BME280;36011;53.362;58.948;2023-05-20T04:02:00;97505.50;;;12.98;48.88
49943;BME280;36011;53.362;58.948;2023-05-20T04:05:03;97509.16;;;13.10;48.76
49943;BME280;36011;53.362;58.948;2023-05-20T04:08:04;97504.00;;;13.21;47.58
49943;BME280;36011;53.362;58.948;2023-05-20T04:11:05;97508.84;;;13.29;47.42
49943;BME280;36011;53.362;58.948;2023-05-20T04:14:07;97500.19;;;13.39;47.31
49943;BME280;36011;53.362;58.948;2023-05-20T04:17:13;97504.47;;;13.55;46.52
49943;BME280;36011;53.362;58.948;2023-05-20T04:20:14;97503.41;;;13.70;45.50
49943;BME280;36011;53.362;58.948;2023-05-20T04:23:17;97506.00;;;13.84;45.76
49943;BME280;36011;53.362;58.948;2023-05-20T04:26:20;97501.34;;;14.01;45.52
49943;BME280;36011;53.362;58.948;2023-05-20T04:29:24;97500.84;;;14.21;44.92
49943;BME280;36011;53.362;58.948;2023-05-20T04:32:26;97502.59;;;14.59;44.34
49943;BME280;36011;53.362;58.948;2023-05-20T04:35:29;97510.34;;;16.63;40.82
49943;BME280;36011;53.362;58.948;2023-05-20T04:38:34;97507.31;;;19.98;35.85
49943;BME280;36011;53.362;58.948;2023-05-20T04:41:35;97507.66;;;23.27;32.18
49943;BME280;36011;53.362;58.948;2023-05-20T04:44:42;97511.53;;;26.05;29.65
49943;BME280;36011;53.362;58.948;2023-05-20T04:47:45;97518.03;;;28.73;27.84
49943;BME280;36011;53.362;58.948;2023-05-20T04:50:48;97517.81;;;31.17;26.30
49943;BME280;36011;53.362;58.948;2023-05-20T04:53:52;97516.94;;;33.43;25.51
49943;BME280;36011;53.362;58.948;2023-05-20T04:56:53;97525.47;;;35.20;23.84
49943;BME280;36011;53.362;58.948;2023-05-20T04:59:54;97512.16;;;36.77;18.63
49943;BME280;36011;53.362;58.948;2023-05-20T05:03:01;97517.50;;;38.53;22.06
49943;BME280;36011;53.362;58.948;2023-05-20T05:06:03;97521.03;;;40.22;21.27
49943;BME280;36011;53.362;58.948;2023-05-20T05:09:04;97513.25;;;41.00;15.89
49943;BME280;36011;53.362;58.948;2023-05-20T05:12:10;97509.53;;;41.95;18.77
49943;BME280;36011;53.362;58.948;2023-05-20T05:15:13;97500.59;;;42.48;17.54
49943;BME280;36011;53.362;58.948;2023-05-20T05:18:16;97503.91;;;42.79;16.77
49943;BME280;36011;53.362;58.948;2023-05-20T05:21:18;97498.22;;;43.19;16.71
49943;BME280;36011;53.362;58.948;2023-05-20T05:24:27;97500.66;;;44.06;14.62
49943;BME280;36011;53.362;58.948;2023-05-20T05:27:29;97497.84;;;44.91;15.30
49943;BME280;36011;53.362;58.948;2023-05-20T05:30:36;97505.94;;;46.43;13.96
49943;BME280;36011;53.362;58.948;2023-05-20T05:33:37;97501.94;;;47.86;13.22
49943;BME280;36011;53.362;58.948;2023-05-20T05:36:39;97499.50;;;48.10;12.11
49943;BME280;36011;53.362;58.948;2023-05-20T05:39:41;97500.44;;;47.71;11.81
49943;BME280;36011;53.362;58.948;2023-05-20T05:42:45;97489.59;;;47.52;11.73
49943;BME280;36011;53.362;58.948;2023-05-20T05:45:47;97501.44;;;47.84;11.22
49943;BME280;36011;53.362;58.948;2023-05-20T05:48:50;97499.50;;;48.10;9.59
49943;BME280;36011;53.362;58.948;2023-05-20T05:51:52;97491.75;;;48.60;10.18
49943;BME280;36011;53.362;58.948;2023-05-20T05:54:59;97496.75;;;48.75;8.88
49943;BME280;36011;53.362;58.948;2023-05-20T05:58:01;97493.91;;;49.39;9.12
49943;BME280;36011;53.362;58.948;2023-05-20T06:01:03;97491.34;;;49.55;8.82
49943;BME280;36011;53.362;58.948;2023-05-20T06:04:04;97488.28;;;49.90;5.82
49943;BME280;36011;53.362;58.948;2023-05-20T06:07:07;97489.72;;;50.38;7.10
49943;BME280;36011;53.362;58.948;2023-05-20T06:10:12;97494.38;;;50.34;7.66
49943;BME280;36011;53.362;58.948;2023-05-20T06:13:14;97502.53;;;50.39;7.27
49943;BME280;36011;53.362;58.948;2023-05-20T06:20:01;97496.47;;;50.70;5.87
49943;BME280;36011;53.362;58.948;2023-05-20T06:23:06;97497.19;;;50.92;5.87
49943;BME280;36011;53.362;58.948;2023-05-20T06:26:09;97501.19;;;50.91;6.78
49943;BME280;36011;53.362;58.948;2023-05-20T06:29:12;97491.19;;;51.02;6.54
49943;BME280;36011;53.362;58.948;2023-05-20T06:32:13;97483.78;;;50.97;6.13
49943;BME280;36011;53.362;58.948;2023-05-20T06:35:16;97500.09;;;50.83;5.92
49943;BME280;36011;53.362;58.948;2023-05-20T06:38:20;97493.91;;;50.78;6.13
49943;BME280;36011;53.362;58.948;2023-05-20T06:41:25;97485.69;;;51.06;5.68
49943;BME280;36011;53.362;58.948;2023-05-20T06:44:28;97483.34;;;51.08;5.40
49943;BME280;36011;53.362;58.948;2023-05-20T06:47:30;97484.50;;;51.68;5.31
49943;BME280;36011;53.362;58.948;2023-05-20T06:50:37;97497.22;;;52.46;4.98
49943;BME280;36011;53.362;58.948;2023-05-20T06:53:39;97482.72;;;52.44;4.83
49943;BME280;36011;53.362;58.948;2023-05-20T06:56:42;97493.84;;;52.69;5.36
49943;BME280;36011;53.362;58.948;2023-05-20T06:59:45;97488.09;;;52.49;3.59
49943;BME280;36011;53.362;58.948;2023-05-20T07:02:47;97491.16;;;51.51;4.55
49943;BME280;36011;53.362;58.948;2023-05-20T07:05:50;97486.69;;;51.62;4.05
49943;BME280;36011;53.362;58.948;2023-05-20T07:08:52;97475.53;;;51.13;3.67
49943;BME280;36011;53.362;58.948;2023-05-20T07:11:56;97479.25;;;51.05;3.58
49943;BME280;36011;53.362;58.948;2023-05-20T07:14:57;97469.34;;;51.45;2.99
49943;BME280;36011;53.362;58.948;2023-05-20T07:18:02;97470.56;;;51.72;3.86
49943;BME280;36011;53.362;58.948;2023-05-20T07:21:07;97472.13;;;52.10;3.25
49943;BME280;36011;53.362;58.948;2023-05-20T07:24:10;97472.22;;;52.13;3.51
49943;BME280;36011;53.362;58.948;2023-05-20T07:27:11;97465.88;;;52.16;3.96
49943;BME280;36011;53.362;58.948;2023-05-20T07:30:15;97471.16;;;52.93;3.42
49943;BME280;36011;53.362;58.948;2023-05-20T07:33:19;97467.16;;;53.42;3.31
49943;BME280;36011;53.362;58.948;2023-05-20T07:36:21;97478.09;;;53.12;3.30
49943;BME280;36011;53.362;58.948;2023-05-20T07:39:27;97466.50;;;52.38;3.05
49943;BME280;36011;53.362;58.948;2023-05-20T07:42:28;97461.34;;;51.47;3.55
49943;BME280;36011;53.362;58.948;2023-05-20T07:45:30;97468.00;;;51.67;3.58
49943;BME280;36011;53.362;58.948;2023-05-20T07:48:33;97461.72;;;51.33;2.89
49943;BME280;36011;53.362;58.948;2023-05-20T07:51:38;97450.78;;;50.58;3.15
49943;BME280;36011;53.362;58.948;2023-05-20T07:54:41;97457.50;;;51.27;3.51
49943;BME280;36011;53.362;58.948;2023-05-20T07:57:44;97445.50;;;52.63;3.63
49943;BME280;36011;53.362;58.948;2023-05-20T08:00:49;97454.81;;;53.47;3.12
49943;BME280;36011;53.362;58.948;2023-05-20T08:03:51;97460.06;;;54.03;2.71
49943;BME280;36011;53.362;58.948;2023-05-20T08:06:54;97463.03;;;53.20;3.25
49943;BME280;36011;53.362;58.948;2023-05-20T08:09:56;97452.13;;;52.71;2.40
49943;BME280;36011;53.362;58.948;2023-05-20T08:12:59;97440.44;;;51.32;3.11
49943;BME280;36011;53.362;58.948;2023-05-20T08:16:01;97432.06;;;50.83;3.23
49943;BME280;36011;53.362;58.948;2023-05-20T08:19:12;97441.56;;;51.80;3.10
49943;BME280;36011;53.362;58.948;2023-05-20T08:22:14;97430.47;;;51.71;2.57
49943;BME280;36011;53.362;58.948;2023-05-20T08:25:18;97431.03;;;51.77;2.67
49943;BME280;36011;53.362;58.948;2023-05-20T08:28:23;97444.84;;;51.70;2.99
49943;BME280;36011;53.362;58.948;2023-05-20T08:31:26;97429.44;;;52.04;3.09
49943;BME280;36011;53.362;58.948;2023-05-20T08:34:33;97412.13;;;52.46;3.38
49943;BME280;36011;53.362;58.948;2023-05-20T08:37:38;97424.41;;;51.69;2.74
49943;BME280;36011;53.362;58.948;2023-05-20T08:40:41;97421.56;;;51.04;2.21
49943;BME280;36011;53.362;58.948;2023-05-20T08:43:47;97412.19;;;51.12;3.09
49943;BME280;36011;53.362;58.948;2023-05-20T08:46:53;97411.34;;;51.49;2.76
49943;BME280;36011;53.362;58.948;2023-05-20T08:49:57;97418.00;;;51.44;2.98
49943;BME280;36011;53.362;58.948;2023-05-20T08:53:01;97418.38;;;51.83;2.89
49943;BME280;36011;53.362;58.948;2023-05-20T08:56:13;97428.25;;;51.64;2.83
49943;BME280;36011;53.362;58.948;2023-05-20T08:59:18;97412.56;;;50.86;3.00
49943;BME280;36011;53.362;58.948;2023-05-20T09:02:24;97398.38;;;50.58;3.22
49943;BME280;36011;53.362;58.948;2023-05-20T09:05:30;97403.50;;;49.98;3.20
49943;BME280;36011;53.362;58.948;2023-05-20T09:08:31;97396.66;;;49.87;3.05
49943;BME280;36011;53.362;58.948;2023-05-20T09:11:33;97394.19;;;49.85;3.57
49943;BME280;36011;53.362;58.948;2023-05-20T09:14:34;97400.38;;;49.91;3.16
49943;BME280;36011;53.362;58.948;2023-05-20T09:17:37;97393.94;;;49.36;3.37
49943;BME280;36011;53.362;58.948;2023-05-20T09:20:41;97392.97;;;49.03;3.38
49943;BME280;36011;53.362;58.948;2023-05-20T09:23:46;97389.50;;;49.06;3.21
49943;BME280;36011;53.362;58.948;2023-05-20T09:26:50;97390.19;;;49.03;3.02
49943;BME280;36011;53.362;58.948;2023-05-20T09:29:54;97387.06;;;48.66;3.01
49943;BME280;36011;53.362;58.948;2023-05-20T09:33:02;97382.56;;;48.35;3.19
49943;BME280;36011;53.362;58.948;2023-05-20T09:36:07;97381.38;;;47.54;3.32
49943;BME280;36011;53.362;58.948;2023-05-20T09:39:12;97374.91;;;47.28;3.41
49943;BME280;36011;53.362;58.948;2023-05-20T09:42:21;97388.63;;;46.98;3.42
49943;BME280;36011;53.362;58.948;2023-05-20T09:45:28;97378.88;;;46.69;3.38
49943;BME280;36011;53.362;58.948;2023-05-20T09:48:29;97377.78;;;46.25;3.59
49943;BME280;36011;53.362;58.948;2023-05-20T09:51:35;97381.69;;;46.16;3.58
49943;BME280;36011;53.362;58.948;2023-05-20T09:54:38;97366.66;;;45.94;3.60
49943;BME280;36011;53.362;58.948;2023-05-20T09:57:43;97369.19;;;45.45;3.85
49943;BME280;36011;53.362;58.948;2023-05-20T10:00:48;97369.69;;;44.42;3.97
49943;BME280;36011;53.362;58.948;2023-05-20T10:03:50;97369.69;;;42.77;4.61
49943;BME280;36011;53.362;58.948;2023-05-20T10:17:19;97359.22;;;41.86;4.71
49943;BME280;36011;53.362;58.948;2023-05-20T10:20:28;97365.38;;;40.89;5.06
49943;BME280;36011;53.362;58.948;2023-05-20T10:23:29;97362.69;;;40.58;5.26
49943;BME280;36011;53.362;58.948;2023-05-20T10:26:38;97364.53;;;41.48;5.03
49943;BME280;36011;53.362;58.948;2023-05-20T10:29:52;97375.81;;;41.91;4.99
49943;BME280;36011;53.362;58.948;2023-05-20T10:33:01;97372.78;;;41.54;4.81
49943;BME280;36011;53.362;58.948;2023-05-20T10:36:04;97367.78;;;41.01;5.05
49943;BME280;36011;53.362;58.948;2023-05-20T10:39:13;97360.50;;;40.66;5.25
49943;BME280;36011;53.362;58.948;2023-05-20T10:42:26;97364.88;;;40.61;5.33
49943;BME280;36011;53.362;58.948;2023-05-20T10:45:30;97354.22;;;41.04;5.11
49943;BME280;36011;53.362;58.948;2023-05-20T10:48:32;97356.13;;;40.39;5.36
49943;BME280;36011;53.362;58.948;2023-05-20T10:51:35;97367.16;;;39.52;5.73
49943;BME280;36011;53.362;58.948;2023-05-20T10:55:02;97344.50;;;39.09;5.67
49943;BME280;36011;53.362;58.948;2023-05-20T10:58:08;97348.53;;;38.76;5.79
49943;BME280;36011;53.362;58.948;2023-05-20T11:01:09;97354.31;;;37.57;6.07
49943;BME280;36011;53.362;58.948;2023-05-20T11:04:11;97350.94;;;35.34;6.84
49943;BME280;36011;53.362;58.948;2023-05-20T11:07:27;97364.50;;;33.89;7.79
49943;BME280;36011;53.362;58.948;2023-05-20T11:10:32;97359.72;;;34.67;7.42
49943;BME280;36011;53.362;58.948;2023-05-20T11:13:33;97366.63;;;33.98;7.84
49943;BME280;36011;53.362;58.948;2023-05-20T11:16:40;97365.75;;;33.21;8.22
49943;BME280;36011;53.362;58.948;2023-05-20T11:19:42;97370.44;;;33.97;7.80
49943;BME280;36011;53.362;58.948;2023-05-20T11:22:43;97367.72;;;34.33;7.95
49943;BME280;36011;53.362;58.948;2023-05-20T11:25:48;97368.81;;;33.13;8.56
49943;BME280;36011;53.362;58.948;2023-05-20T11:28:49;97366.97;;;31.89;8.75
49943;BME280;36011;53.362;58.948;2023-05-20T11:31:53;97370.03;;;31.11;9.00
49943;BME280;36011;53.362;58.948;2023-05-20T11:34:56;97366.09;;;30.49;9.71
49943;BME280;36011;53.362;58.948;2023-05-20T11:38:01;97372.66;;;30.08;9.97
49943;BME280;36011;53.362;58.948;2023-05-20T11:41:03;97372.69;;;29.81;9.79
49943;BME280;36011;53.362;58.948;2023-05-20T11:44:08;97371.63;;;30.02;9.82
49943;BME280;36011;53.362;58.948;2023-05-20T11:47:09;97373.47;;;30.28;9.61
49943;BME280;36011;53.362;58.948;2023-05-20T11:50:16;97375.56;;;30.26;9.84
49943;BME280;36011;53.362;58.948;2023-05-20T11:53:21;97358.72;;;30.69;9.65
49943;BME280;36011;53.362;58.948;2023-05-20T11:56:22;97379.16;;;30.78;9.87
49943;BME280;36011;53.362;58.948;2023-05-20T11:59:23;97370.56;;;30.10;10.11
49943;BME280;36011;53.362;58.948;2023-05-20T12:02:29;97363.47;;;29.62;10.43
49943;BME280;36011;53.362;58.948;2023-05-20T12:05:31;97370.78;;;30.08;9.96
49943;BME280;36011;53.362;58.948;2023-05-20T12:08:33;97365.94;;;30.43;10.18
49943;BME280;36011;53.362;58.948;2023-05-20T12:11:39;97371.97;;;31.04;9.49
49943;BME280;36011;53.362;58.948;2023-05-20T12:14:40;97370.53;;;31.65;9.62
49943;BME280;36011;53.362;58.948;2023-05-20T12:17:44;97370.81;;;32.07;9.08
49943;BME280;36011;53.362;58.948;2023-05-20T12:20:45;97369.13;;;32.31;9.04
49943;BME280;36011;53.362;58.948;2023-05-20T12:23:49;97367.22;;;31.88;9.73
49943;BME280;36011;53.362;58.948;2023-05-20T12:26:50;97354.00;;;31.03;9.70
49943;BME280;36011;53.362;58.948;2023-05-20T12:29:51;97356.41;;;30.01;10.33
49943;BME280;36011;53.362;58.948;2023-05-20T12:32:52;97357.16;;;29.08;11.01
49943;BME280;36011;53.362;58.948;2023-05-20T12:35:55;97358.38;;;28.16;11.61
49943;BME280;36011;53.362;58.948;2023-05-20T12:38:57;97346.91;;;27.80;11.53
49943;BME280;36011;53.362;58.948;2023-05-20T12:42:00;97352.63;;;28.33;11.23
49943;BME280;36011;53.362;58.948;2023-05-20T12:45:01;97364.00;;;28.50;11.33
49943;BME280;36011;53.362;58.948;2023-05-20T12:48:04;97367.28;;;28.10;11.48
49943;BME280;36011;53.362;58.948;2023-05-20T12:51:08;97357.34;;;27.40;11.82
49943;BME280;36011;53.362;58.948;2023-05-20T12:54:09;97347.44;;;26.68;11.91
49943;BME280;36011;53.362;58.948;2023-05-20T12:57:12;97349.88;;;26.03;12.63
49943;BME280;36011;53.362;58.948;2023-05-20T13:00:13;97348.13;;;25.58;12.80
49943;BME280;36011;53.362;58.948;2023-05-20T13:03:15;97342.28;;;25.69;12.67
49943;BME280;36011;53.362;58.948;2023-05-20T13:06:21;97347.47;;;26.08;12.26
49943;BME280;36011;53.362;58.948;2023-05-20T13:09:22;97346.44;;;26.54;12.62
49943;BME280;36011;53.362;58.948;2023-05-20T13:12:25;97345.03;;;26.43;12.19
49943;BME280;36011;53.362;58.948;2023-05-20T13:15:30;97356.78;;;26.06;12.41
49943;BME280;36011;53.362;58.948;2023-05-20T13:18:32;97351.91;;;25.48;12.77
49943;BME280;36011;53.362;58.948;2023-05-20T13:21:35;97349.03;;;25.04;13.12
49943;BME280;36011;53.362;58.948;2023-05-20T13:24:39;97346.84;;;24.76;13.32
49943;BME280;36011;53.362;58.948;2023-05-20T13:27:40;97340.34;;;24.62;13.64
49943;BME280;36011;53.362;58.948;2023-05-20T13:30:44;97347.97;;;24.59;13.60
49943;BME280;36011;53.362;58.948;2023-05-20T13:33:50;97343.50;;;24.74;13.62
49943;BME280;36011;53.362;58.948;2023-05-20T13:36:58;97342.91;;;24.87;13.52
49943;BME280;36011;53.362;58.948;2023-05-20T13:39:59;97336.91;;;24.77;13.36
49943;BME280;36011;53.362;58.948;2023-05-20T13:42:59;97336.09;;;24.37;13.54
49943;BME280;36011;53.362;58.948;2023-05-20T13:46:00;97335.91;;;23.91;14.07
49943;BME280;36011;53.362;58.948;2023-05-20T13:49:08;97354.44;;;23.69;14.58
49943;BME280;36011;53.362;58.948;2023-05-20T13:52:09;97354.09;;;23.56;14.40
49943;BME280;36011;53.362;58.948;2023-05-20T13:55:10;97351.56;;;23.46;14.50
49943;BME280;36011;53.362;58.948;2023-05-20T13:58:13;97352.41;;;23.14;14.56
49943;BME280;36011;53.362;58.948;2023-05-20T14:01:17;97356.00;;;22.72;15.01
49943;BME280;36011;53.362;58.948;2023-05-20T14:04:21;97353.91;;;22.41;15.24
49943;BME280;36011;53.362;58.948;2023-05-20T14:07:27;97358.53;;;22.23;15.34
49943;BME280;36011;53.362;58.948;2023-05-20T14:10:31;97353.63;;;22.18;15.37
49943;BME280;36011;53.362;58.948;2023-05-20T14:13:35;97361.53;;;22.20;15.40
49943;BME280;36011;53.362;58.948;2023-05-20T14:16:38;97359.84;;;22.19;15.46
49943;BME280;36011;53.362;58.948;2023-05-20T14:19:39;97356.88;;;22.04;15.48
49943;BME280;36011;53.362;58.948;2023-05-20T14:22:46;97362.78;;;21.82;15.74
49943;BME280;36011;53.362;58.948;2023-05-20T14:25:47;97362.09;;;21.53;16.17
49943;BME280;36011;53.362;58.948;2023-05-20T14:28:49;97363.69;;;21.28;16.40
49943;BME280;36011;53.362;58.948;2023-05-20T14:31:52;97371.22;;;21.07;16.44
49943;BME280;36011;53.362;58.948;2023-05-20T14:34:53;97367.56;;;20.90;16.79
49943;BME280;36011;53.362;58.948;2023-05-20T14:37:56;97368.78;;;20.78;16.82
49943;BME280;36011;53.362;58.948;2023-05-20T14:41:00;97367.34;;;20.83;16.66
49943;BME280;36011;53.362;58.948;2023-05-20T14:44:01;97369.91;;;20.93;17.03
49943;BME280;36011;53.362;58.948;2023-05-20T14:47:07;97375.88;;;20.87;16.85
49943;BME280;36011;53.362;58.948;2023-05-20T14:50:17;97371.88;;;20.73;16.54
49943;BME280;36011;53.362;58.948;2023-05-20T14:53:29;97367.75;;;20.61;17.03
49943;BME280;36011;53.362;58.948;2023-05-20T14:56:30;97363.97;;;20.54;17.04
49943;BME280;36011;53.362;58.948;2023-05-20T14:59:33;97369.50;;;20.42;17.29
49943;BME280;36011;53.362;58.948;2023-05-20T15:02:39;97368.56;;;20.34;17.42
49943;BME280;36011;53.362;58.948;2023-05-20T15:05:43;97373.28;;;20.22;17.64
49943;BME280;36011;53.362;58.948;2023-05-20T15:08:46;97375.84;;;20.14;17.82
49943;BME280;36011;53.362;58.948;2023-05-20T15:11:49;97366.88;;;20.05;17.64
49943;BME280;36011;53.362;58.948;2023-05-20T15:14:51;97369.13;;;20.00;17.94
49943;BME280;36011;53.362;58.948;2023-05-20T15:17:54;97366.94;;;19.86;18.00
49943;BME280;36011;53.362;58.948;2023-05-20T15:20:59;97369.38;;;19.69;18.49
49943;BME280;36011;53.362;58.948;2023-05-20T15:24:05;97375.97;;;19.56;18.35
49943;BME280;36011;53.362;58.948;2023-05-20T15:27:08;97377.13;;;19.43;18.23
49943;BME280;36011;53.362;58.948;2023-05-20T15:30:10;97376.84;;;19.37;18.62
49943;BME280;36011;53.362;58.948;2023-05-20T15:33:13;97380.78;;;19.33;18.46
49943;BME280;36011;53.362;58.948;2023-05-20T15:36:15;97375.88;;;19.28;18.38
49943;BME280;36011;53.362;58.948;2023-05-20T15:39:18;97384.41;;;19.22;18.78
49943;BME280;36011;53.362;58.948;2023-05-20T15:42:19;97383.59;;;19.12;19.08
49943;BME280;36011;53.362;58.948;2023-05-20T15:45:21;97380.22;;;19.00;19.51
49943;BME280;36011;53.362;58.948;2023-05-20T15:48:24;97394.97;;;18.94;18.67
49943;BME280;36011;53.362;58.948;2023-05-20T15:51:28;97392.84;;;18.88;18.92
49943;BME280;36011;53.362;58.948;2023-05-20T15:54:29;97392.28;;;18.84;18.97
49943;BME280;36011;53.362;58.948;2023-05-20T15:57:33;97384.97;;;18.77;19.40
49943;BME280;36011;53.362;58.948;2023-05-20T16:00:34;97390.53;;;18.64;19.29
49943;BME280;36011;53.362;58.948;2023-05-20T16:03:40;97389.66;;;18.54;19.10
49943;BME280;36011;53.362;58.948;2023-05-20T16:06:43;97398.91;;;18.40;19.55
49943;BME280;36011;53.362;58.948;2023-05-20T16:09:47;97403.59;;;18.27;19.30
49943;BME280;36011;53.362;58.948;2023-05-20T16:12:50;97404.53;;;18.16;19.76
49943;BME280;36011;53.362;58.948;2023-05-20T16:15:51;97413.00;;;18.00;19.66
49943;BME280;36011;53.362;58.948;2023-05-20T16:18:59;97408.44;;;17.81;20.21
49943;BME280;36011;53.362;58.948;2023-05-20T16:22:00;97406.34;;;17.64;20.87